Time;durP1;ratioP1;P1;durP2;ratioP2;P2;SDS_P1;SDS_P2;PMS_P1;PMS_P2;Temp;Humidity;BMP_temperature;BMP_pressure;BME280_temperature;BME280_humidity;BME280_pressure;Samples;Min_cycle;Max_cycle;Signal;HPM_P1;HPM_P2
2023/05/21 00:00:24;;;;;;;;;;;;;;;;;;5177557;27;1786;-53
2023/05/21 00:02:52;;;;;;;;;;;;;;;;;;5177467;27;2058;-56
2023/05/21 00:05:20;;;;;;;;;;;;;;;;;;5177600;27;1659;-52
2023/05/21 00:07:47;;;;;;;;;;;;;;;;;;5177434;27;1289;-57
2023/05/21 00:10:14;;;;;;;;;;;;;;;;;;5177486;27;2181;-60
2023/05/21 00:12:41;;;;;;;;;;;;;;;;;;5177213;27;2167;-53
2023/05/21 00:15:09;;;;;;;;;;;;;;;;;;5177217;27;1684;-49
2023/05/21 00:17:36;;;;;;;;;;;;;;;;;;5177179;27;1897;-59
2023/05/21 00:20:07;;;;;;;;;;;;;;;;;;5177518;27;1776;-60
2023/05/21 00:22:35;;;;;;;;;;;;;;;;;;5177310;27;1992;-59
2023/05/21 00:25:02;;;;;;;;;;;;;;;;;;5177108;27;1748;-59
2023/05/21 00:27:29;;;;;;;;;;;;;;;;;;5177011;27;1982;-52
2023/05/21 00:29:57;;;;;;;;;;;;;;;;;;5177094;27;1682;-61
2023/05/21 00:32:24;;;;;;;;;;;;;;;;;;5158274;27;1499;-55
2023/05/21 00:34:52;;;;;;;;;;;;;;;;;;5177053;27;1970;-55
2023/05/21 00:37:19;;;;;;;;;;;;;;;;;;5176660;27;1941;-50
2023/05/21 00:39:46;;;;;;;;;;;;;;;;;;5176639;27;1784;-61
2023/05/21 00:42:16;;;;;;;;;;;;;;;;;;5176695;27;1461;-50
2023/05/21 00:44:44;;;;;;;;;;;;;;;;;;5174549;27;1429;-54
2023/05/21 00:47:12;;;;;;;;;;;;;;;;;;5156018;27;1626;-52
2023/05/21 00:49:39;;;;;;;;;;;;;;;;;;5155836;27;1448;-54
2023/05/21 00:52:07;;;;;;;;;;;;;;;;;;5137212;27;1660;-54
2023/05/21 00:54:34;;;;;;;;;;;;;;;;;;5150716;27;1255;-57
2023/05/21 00:57:02;;;;;;;;;;;;;;;;;;5176230;27;1973;-53
2023/05/21 00:59:31;;;;;;;;;;;;;;;;;;5175800;27;1788;-57
2023/05/21 01:02:02;;;;;;;;;;;;;;;;;;5176597;27;1926;-57
2023/05/21 01:04:30;;;;;;;;;;;;;;;;;;5176266;27;2125;-55
2023/05/21 01:06:58;;;;;;;;;;;;;;;;;;5176498;27;1695;-61
2023/05/21 01:09:25;;;;;;;;;;;;;;;;;;5176209;27;1536;-61
2023/05/21 01:11:54;;;;;;;;;;;;;;;;;;5176102;27;1387;-60
2023/05/21 01:14:23;;;;;;;;;;;;;;;;;;5176316;27;1252;-58
2023/05/21 01:16:51;;;;;;;;;;;;;;;;;;5175973;27;1907;-61
2023/05/21 01:19:22;;;;;;;;;;;;;;;;;;5175724;27;1955;-57
2023/05/21 01:21:52;;;;;;;;;;;;;;;;;;5176097;27;1953;-57
2023/05/21 01:24:19;;;;;;;;;;;;;;;;;;5157030;27;1702;-53
2023/05/21 01:26:47;;;;;;;;;;;;;;;;;;5175507;27;1818;-58
2023/05/21 01:29:14;;;;;;;;;;;;;;;;;;5136635;27;1959;-57
2023/05/21 01:31:54;;;;;;;;;;;;;;;;;;5155089;27;1471;-55
2023/05/21 01:34:24;;;;;;;;;;;;;;;;;;5119252;27;1940;-54
2023/05/21 01:37:07;;;;;;;;;;;;;;;;;;5136138;27;1913;-56
2023/05/21 01:39:37;;;;;;;;;;;;;;;;;;5135640;27;1510;-52
2023/05/21 01:42:07;;;;;;;;;;;;;;;;;;5154781;27;1740;-58
2023/05/21 01:44:35;;;;;;;;;;;;;;;;;;5154757;27;1422;-59
2023/05/21 01:47:04;;;;;;;;;;;;;;;;;;5154767;27;1485;-61
2023/05/21 01:49:32;;;;;;;;;;;;;;;;;;5154530;27;1390;-58
2023/05/21 01:52:00;;;;;;;;;;;;;;;;;;5154398;27;1623;-57
2023/05/21 01:54:28;;;;;;;;;;;;;;;;;;5167354;27;2301;-58
2023/05/21 01:56:55;;;;;;;;;;;;;;;;;;5175244;27;1918;-55
2023/05/21 01:59:23;;;;;;;;;;;;;;;;;;5156132;27;1459;-54
2023/05/21 02:01:50;;;;;;;;;;;;;;;;;;5139343;27;1964;-50
2023/05/21 02:04:20;;;;;;;;;;;;;;;;;;5175459;27;2022;-58
2023/05/21 02:06:47;;;;;;;;;;;;;;;;;;5156432;27;1622;-58
2023/05/21 02:09:14;;;;;;;;;;;;;;;;;;5175593;27;1241;-58
2023/05/21 02:11:41;;;;;;;;;;;;;;;;;;5174393;27;1458;-51
2023/05/21 02:14:09;;;;;;;;;;;;;;;;;;5175003;27;1401;-54
2023/05/21 02:16:37;;;;;;;;;;;;;;;;;;5174898;27;1884;-61
2023/05/21 02:19:05;;;;;;;;;;;;;;;;;;5156047;27;2486;-61
2023/05/21 02:21:32;;;;;;;;;;;;;;;;;;5143852;27;1752;-61
2023/05/21 02:23:59;;;;;;;;;;;;;;;;;;5153795;27;1842;-56
2023/05/21 02:26:27;;;;;;;;;;;;;;;;;;5153859;27;1754;-57
2023/05/21 02:28:55;;;;;;;;;;;;;;;;;;5153990;27;1357;-49
2023/05/21 02:31:22;;;;;;;;;;;;;;;;;;5135332;27;2183;-61
2023/05/21 02:33:49;;;;;;;;;;;;;;;;;;5135047;27;1534;-55
2023/05/21 02:36:17;;;;;;;;;;;;;;;;;;5154140;27;1947;-53
2023/05/21 02:38:45;;;;;;;;;;;;;;;;;;5153717;27;1912;-59
2023/05/21 02:41:12;;;;;;;;;;;;;;;;;;5134704;27;1463;-61
2023/05/21 02:43:40;;;;;;;;;;;;;;;;;;5134872;27;1842;-58
2023/05/21 02:46:07;;;;;;;;;;;;;;;;;;5153653;27;1646;-60
2023/05/21 02:48:35;;;;;;;;;;;;;;;;;;5153434;27;1355;-60
2023/05/21 02:51:04;;;;;;;;;;;;;;;;;;5134840;27;1719;-59
2023/05/21 02:53:31;;;;;;;;;;;;;;;;;;5157590;27;1715;-57
2023/05/21 02:55:59;;;;;;;;;;;;;;;;;;5173593;27;2125;-54
2023/05/21 02:58:26;;;;;;;;;;;;;;;;;;5158329;27;2152;-55
2023/05/21 03:00:54;;;;;;;;;;;;;;;;;;5134463;27;1746;-57
2023/05/21 03:03:21;;;;;;;;;;;;;;;;;;5134627;27;2257;-54
2023/05/21 03:05:49;;;;;;;;;;;;;;;;;;5153505;27;1324;-56
2023/05/21 03:08:17;;;;;;;;;;;;;;;;;;5134527;27;1729;-59
2023/05/21 03:10:44;;;;;;;;;;;;;;;;;;5134845;27;2128;-57
2023/05/21 03:13:12;;;;;;;;;;;;;;;;;;5153065;27;2192;-59
2023/05/21 03:15:39;;;;;;;;;;;;;;;;;;5153101;27;1268;-57
2023/05/21 03:18:07;;;;;;;;;;;;;;;;;;5134345;27;2171;-60
2023/05/21 03:20:36;;;;;;;;;;;;;;;;;;5152714;27;1883;-53
2023/05/21 03:23:04;;;;;;;;;;;;;;;;;;5152207;27;1879;-59
2023/05/21 03:25:33;;;;;;;;;;;;;;;;;;5152481;27;2000;-59
2023/05/21 03:28:01;;;;;;;;;;;;;;;;;;5152733;27;1189;-58
2023/05/21 03:30:48;;;;;;;;;;;;;;;;;;5152828;27;1796;-54
2023/05/21 03:33:42;;;;;;;;;;;;;;;;;;5134203;27;1842;-57
2023/05/21 03:36:24;;;;;;;;;;;;;;;;;;5133952;27;2099;-54
2023/05/21 03:38:51;;;;;;;;;;;;;;;;;;5134244;27;1984;-55
2023/05/21 03:41:20;;;;;;;;;;;;;;;;;;5134130;27;1372;-58
2023/05/21 03:43:52;;;;;;;;;;;;;;;;;;5134339;27;1973;-59
2023/05/21 03:46:22;;;;;;;;;;;;;;;;;;5134187;27;2182;-56
2023/05/21 03:48:58;;;;;;;;;;;;;;;;;;5133848;27;2103;-58
2023/05/21 03:51:30;;;;;;;;;;;;;;;;;;5134048;27;2115;-57
2023/05/21 03:53:58;;;;;;;;;;;;;;;;;;5142095;27;2060;-57
2023/05/21 03:56:25;;;;;;;;;;;;;;;;;;5154871;27;1982;-49
2023/05/21 03:58:53;;;;;;;;;;;;;;;;;;5173424;27;1917;-51
2023/05/21 04:01:20;;;;;;;;;;;;;;;;;;5173160;27;1960;-51
2023/05/21 04:03:49;;;;;;;;;;;;;;;;;;5154656;27;1675;-56
2023/05/21 04:06:17;;;;;;;;;;;;;;;;;;5154619;27;1483;-57
2023/05/21 04:08:45;;;;;;;;;;;;;;;;;;5154435;27;1525;-53
2023/05/21 04:11:13;;;;;;;;;;;;;;;;;;5173379;27;1157;-55
2023/05/21 04:13:40;;;;;;;;;;;;;;;;;;5173374;27;1616;-50
2023/05/21 04:16:08;;;;;;;;;;;;;;;;;;5154510;27;1626;-56
2023/05/21 04:18:35;;;;;;;;;;;;;;;;;;5173133;27;1899;-54
2023/05/21 04:21:02;;;;;;;;;;;;;;;;;;5154157;27;1411;-55
2023/05/21 04:23:30;;;;;;;;;;;;;;;;;;5154500;27;1866;-56
2023/05/21 04:26:03;;;;;;;;;;;;;;;;;;5154189;27;2181;-50
2023/05/21 04:28:35;;;;;;;;;;;;;;;;;;5154165;27;1647;-57
2023/05/21 04:31:04;;;;;;;;;;;;;;;;;;5154400;27;1489;-56
2023/05/21 04:33:31;;;;;;;;;;;;;;;;;;5154292;27;1375;-60
2023/05/21 04:35:59;;;;;;;;;;;;;;;;;;5175724;27;1619;-55
2023/05/21 04:38:26;;;;;;;;;;;;;;;;;;5177099;27;2009;-56
2023/05/21 04:40:54;;;;;;;;;;;;;;;;;;5177042;27;1388;-57
2023/05/21 04:43:24;;;;;;;;;;;;;;;;;;5176385;27;1792;-55
2023/05/21 04:45:54;;;;;;;;;;;;;;;;;;5158259;27;1761;-55
2023/05/21 04:48:26;;;;;;;;;;;;;;;;;;5157784;27;2184;-57
2023/05/21 04:50:55;;;;;;;;;;;;;;;;;;5176583;27;2378;-58
2023/05/21 04:53:24;;;;;;;;;;;;;;;;;;5176650;27;1712;-49
2023/05/21 04:55:52;;;;;;;;;;;;;;;;;;5157806;27;2192;-59
2023/05/21 04:58:19;;;;;;;;;;;;;;;;;;5157449;27;2038;-51
2023/05/21 05:00:49;;;;;;;;;;;;;;;;;;5157496;27;2606;-60
2023/05/21 05:03:17;;;;;;;;;;;;;;;;;;5176418;27;2121;-54
2023/05/21 05:05:44;;;;;;;;;;;;;;;;;;5157663;27;1826;-52
2023/05/21 05:08:12;;;;;;;;;;;;;;;;;;5157610;27;2233;-52
2023/05/21 05:10:41;;;;;;;;;;;;;;;;;;5176416;27;2042;-54
2023/05/21 05:13:08;;;;;;;;;;;;;;;;;;5176058;27;1880;-57
2023/05/21 05:15:36;;;;;;;;;;;;;;;;;;5157483;27;1838;-58
2023/05/21 05:18:05;;;;;;;;;;;;;;;;;;5157345;27;1914;-54
2023/05/21 05:20:32;;;;;;;;;;;;;;;;;;5157301;27;1651;-58
2023/05/21 05:22:59;;;;;;;;;;;;;;;;;;5176422;27;2363;-57
2023/05/21 05:25:27;;;;;;;;;;;;;;;;;;5176099;27;2018;-58
2023/05/21 05:27:54;;;;;;;;;;;;;;;;;;5157006;27;2423;-53
2023/05/21 05:30:21;;;;;;;;;;;;;;;;;;5175653;27;1905;-58
2023/05/21 05:32:49;;;;;;;;;;;;;;;;;;5157076;27;1688;-58
2023/05/21 05:35:16;;;;;;;;;;;;;;;;;;5157382;27;1475;-62
2023/05/21 05:37:44;;;;;;;;;;;;;;;;;;5156925;27;1990;-58
2023/05/21 05:40:11;;;;;;;;;;;;;;;;;;5175586;27;1991;-57
2023/05/21 05:42:39;;;;;;;;;;;;;;;;;;5175786;27;1705;-54
2023/05/21 05:45:12;;;;;;;;;;;;;;;;;;5156753;27;1291;-57
2023/05/21 05:47:40;;;;;;;;;;;;;;;;;;5174252;27;1805;-58
2023/05/21 05:50:08;;;;;;;;;;;;;;;;;;5155868;27;1892;-52
2023/05/21 05:52:35;;;;;;;;;;;;;;;;;;5156433;27;2454;-56
2023/05/21 05:55:03;;;;;;;;;;;;;;;;;;5156177;27;1569;-56
2023/05/21 05:57:30;;;;;;;;;;;;;;;;;;5175372;27;1900;-54
2023/05/21 06:00:02;;;;;;;;;;;;;;;;;;5156730;27;2159;-58
2023/05/21 06:02:37;;;;;;;;;;;;;;;;;;5175184;27;1483;-53
2023/05/21 06:05:05;;;;;;;;;;;;;;;;;;5156499;27;1899;-55
2023/05/21 06:07:33;;;;;;;;;;;;;;;;;;5156451;27;2110;-57
2023/05/21 06:10:00;;;;;;;;;;;;;;;;;;5156620;27;1883;-55
2023/05/21 06:12:27;;;;;;;;;;;;;;;;;;5156267;27;2017;-59
2023/05/21 06:14:54;;;;;;;;;;;;;;;;;;5175042;27;2043;-59
2023/05/21 06:17:22;;;;;;;;;;;;;;;;;;5156209;27;1628;-56
2023/05/21 06:19:50;;;;;;;;;;;;;;;;;;5155850;27;2057;-57
2023/05/21 06:22:18;;;;;;;;;;;;;;;;;;5156179;27;2059;-58
2023/05/21 06:24:46;;;;;;;;;;;;;;;;;;5156023;27;1754;-58
2023/05/21 06:27:14;;;;;;;;;;;;;;;;;;5156144;27;2174;-61
2023/05/21 06:29:42;;;;;;;;;;;;;;;;;;5155822;27;1562;-58
2023/05/21 06:32:09;;;;;;;;;;;;;;;;;;5156021;27;1892;-55
2023/05/21 06:34:37;;;;;;;;;;;;;;;;;;5155924;27;1727;-57
2023/05/21 06:37:04;;;;;;;;;;;;;;;;;;5174752;27;1530;-61
2023/05/21 06:39:32;;;;;;;;;;;;;;;;;;5174683;27;1963;-57
2023/05/21 06:42:00;;;;;;;;;;;;;;;;;;5174509;27;1779;-57
2023/05/21 06:45:03;;;;;;;;;;;;;;;;;;5110156;28;1586;-59
2023/05/21 06:47:36;;;;;;;;;;;;;;;;;;5163621;27;2052;-50
2023/05/21 06:50:03;;;;;;;;;;;;;;;;;;5174253;27;1838;-54
2023/05/21 06:52:31;;;;;;;;;;;;;;;;;;5174241;27;1911;-53
2023/05/21 06:55:00;;;;;;;;;;;;;;;;;;5155418;27;1741;-63
2023/05/21 06:57:36;;;;;;;;;;;;;;;;;;5147070;27;2202;-58
2023/05/21 07:00:04;;;;;;;;;;;;;;;;;;5134777;27;2009;-53
2023/05/21 07:02:35;;;;;;;;;;;;;;;;;;5134824;27;1719;-54
2023/05/21 07:05:03;;;;;;;;;;;;;;;;;;5117922;27;2103;-60
2023/05/21 07:07:30;;;;;;;;;;;;;;;;;;5134623;27;1823;-56
2023/05/21 07:09:58;;;;;;;;;;;;;;;;;;5163450;27;1964;-57
2023/05/21 07:12:25;;;;;;;;;;;;;;;;;;5173165;27;1679;-56
2023/05/21 07:14:53;;;;;;;;;;;;;;;;;;5155052;27;2250;-59
2023/05/21 07:17:27;;;;;;;;;;;;;;;;;;5155030;27;1370;-61
2023/05/21 07:20:00;;;;;;;;;;;;;;;;;;5173493;27;2054;-53
2023/05/21 07:22:29;;;;;;;;;;;;;;;;;;5173789;27;2157;-49
2023/05/21 07:24:59;;;;;;;;;;;;;;;;;;5173825;27;1397;-56
2023/05/21 07:27:31;;;;;;;;;;;;;;;;;;5154805;27;1782;-55
2023/05/21 07:30:02;;;;;;;;;;;;;;;;;;5155043;27;2133;-54
2023/05/21 07:32:32;;;;;;;;;;;;;;;;;;5154950;27;1335;-61
2023/05/21 07:35:03;;;;;;;;;;;;;;;;;;5173414;27;2218;-53
2023/05/21 07:37:31;;;;;;;;;;;;;;;;;;5155124;27;2086;-53
2023/05/21 07:40:07;;;;;;;;;;;;;;;;;;5154641;27;1966;-53
2023/05/21 07:42:37;;;;;;;;;;;;;;;;;;5155216;27;1910;-52
2023/05/21 07:45:08;;;;;;;;;;;;;;;;;;5154861;27;2132;-56
2023/05/21 07:47:44;;;;;;;;;;;;;;;;;;5173629;27;1657;-55
2023/05/21 07:50:15;;;;;;;;;;;;;;;;;;5151075;27;2019;-53
2023/05/21 07:52:45;;;;;;;;;;;;;;;;;;5152718;27;2128;-53
2023/05/21 07:55:18;;;;;;;;;;;;;;;;;;5152019;27;1682;-50
2023/05/21 07:57:51;;;;;;;;;;;;;;;;;;5140968;27;2178;-50
2023/05/21 08:00:26;;;;;;;;;;;;;;;;;;5130382;28;1980;-54
2023/05/21 08:02:56;;;;;;;;;;;;;;;;;;5131654;27;1646;-55
2023/05/21 08:05:27;;;;;;;;;;;;;;;;;;5130400;28;1655;-54
2023/05/21 08:07:58;;;;;;;;;;;;;;;;;;5147788;27;1679;-52
2023/05/21 08:10:40;;;;;;;;;;;;;;;;;;5153593;27;2093;-57
2023/05/21 08:13:11;;;;;;;;;;;;;;;;;;5155357;27;1834;-54
2023/05/21 08:15:41;;;;;;;;;;;;;;;;;;5156754;27;1893;-55
2023/05/21 08:18:12;;;;;;;;;;;;;;;;;;5154962;27;1943;-54
2023/05/21 08:20:44;;;;;;;;;;;;;;;;;;5154884;27;1969;-51
2023/05/21 08:23:19;;;;;;;;;;;;;;;;;;5154996;27;2146;-58
2023/05/21 08:25:53;;;;;;;;;;;;;;;;;;5156351;27;2127;-47
2023/05/21 08:28:23;;;;;;;;;;;;;;;;;;5154722;27;1949;-57
2023/05/21 08:30:51;;;;;;;;;;;;;;;;;;5156089;27;1693;-50
2023/05/21 08:33:20;;;;;;;;;;;;;;;;;;5156217;27;2213;-57
2023/05/21 08:35:48;;;;;;;;;;;;;;;;;;5154762;27;2452;-53
2023/05/21 08:38:26;;;;;;;;;;;;;;;;;;5154575;27;1953;-55
2023/05/21 08:41:12;;;;;;;;;;;;;;;;;;5154599;27;2044;-48
2023/05/21 08:43:42;;;;;;;;;;;;;;;;;;5154779;27;1467;-55
2023/05/21 08:46:10;;;;;;;;;;;;;;;;;;5155327;27;2095;-51
2023/05/21 08:48:39;;;;;;;;;;;;;;;;;;5154704;27;2250;-55
2023/05/21 08:51:07;;;;;;;;;;;;;;;;;;5154504;27;2237;-56
2023/05/21 08:53:41;;;;;;;;;;;;;;;;;;5154255;27;2144;-53
2023/05/21 08:56:08;;;;;;;;;;;;;;;;;;5155686;27;1939;-48
2023/05/21 08:58:47;;;;;;;;;;;;;;;;;;5137332;27;2047;-53
2023/05/21 09:01:18;;;;;;;;;;;;;;;;;;5134531;27;1872;-51
2023/05/21 09:03:52;;;;;;;;;;;;;;;;;;5133920;27;1833;-55
2023/05/21 09:06:26;;;;;;;;;;;;;;;;;;5134712;27;1850;-46
2023/05/21 09:09:03;;;;;;;;;;;;;;;;;;5133207;27;2046;-58
2023/05/21 09:11:45;;;;;;;;;;;;;;;;;;5133784;27;2002;-49
2023/05/21 09:14:13;;;;;;;;;;;;;;;;;;5134973;27;2186;-54
2023/05/21 09:16:56;;;;;;;;;;;;;;;;;;5133089;27;1547;-52
2023/05/21 09:19:25;;;;;;;;;;;;;;;;;;5133266;27;1925;-52
2023/05/21 09:21:52;;;;;;;;;;;;;;;;;;5134599;27;1595;-55
2023/05/21 09:24:27;;;;;;;;;;;;;;;;;;5133214;27;1706;-54
2023/05/21 09:27:00;;;;;;;;;;;;;;;;;;5132918;27;2104;-49
2023/05/21 09:29:28;;;;;;;;;;;;;;;;;;5134119;27;1799;-53
2023/05/21 09:31:55;;;;;;;;;;;;;;;;;;5134149;27;2129;-54
2023/05/21 09:34:24;;;;;;;;;;;;;;;;;;5132985;27;1845;-57
2023/05/21 09:36:55;;;;;;;;;;;;;;;;;;5134436;27;2591;-50
2023/05/21 09:39:29;;;;;;;;;;;;;;;;;;5132844;27;2009;-52
2023/05/21 09:42:00;;;;;;;;;;;;;;;;;;5132918;27;1750;-52
2023/05/21 09:44:27;;;;;;;;;;;;;;;;;;5079022;27;9765;-54
2023/05/21 09:46:57;;;;;;;;;;;;;;;;;;5100406;28;2373;-49
2023/05/21 09:49:25;;;;;;;;;;;;;;;;;;5112030;28;2135;-52
2023/05/21 09:51:57;;;;;;;;;;;;;;;;;;5112644;28;1742;-52
2023/05/21 09:54:25;;;;;;;;;;;;;;;;;;5112994;28;1909;-57
2023/05/21 09:56:52;;;;;;;;;;;;;;;;;;5113579;28;1842;-55
2023/05/21 09:59:20;;;;;;;;;;;;;;;;;;5113435;28;2178;-57
2023/05/21 10:01:51;;;;;;;;;;;;;;;;;;5113337;28;1538;-63
2023/05/21 10:04:19;;;;;;;;;;;;;;;;;;5113234;28;2113;-55
2023/05/21 10:06:48;;;;;;;;;;;;;;;;;;5112011;28;1740;-63
2023/05/21 10:09:17;;;;;;;;;;;;;;;;;;5111760;28;1628;-53
2023/05/21 10:11:46;;;;;;;;;;;;;;;;;;5112968;28;2145;-62
2023/05/21 10:14:18;;;;;;;;;;;;;;;;;;5113040;28;2111;-55
2023/05/21 10:16:46;;;;;;;;;;;;;;;;;;5113222;28;1847;-58
2023/05/21 10:19:14;;;;;;;;;;;;;;;;;;5112661;28;1913;-53
2023/05/21 10:21:42;;;;;;;;;;;;;;;;;;5112811;28;1626;-58
2023/05/21 10:24:10;;;;;;;;;;;;;;;;;;5112898;28;2134;-59
2023/05/21 10:26:37;;;;;;;;;;;;;;;;;;5112705;28;1397;-59
2023/05/21 10:29:04;;;;;;;;;;;;;;;;;;5112608;28;2444;-61
2023/05/21 10:31:32;;;;;;;;;;;;;;;;;;5112719;28;1893;-53
2023/05/21 10:33:59;;;;;;;;;;;;;;;;;;5107136;28;2090;-53
2023/05/21 10:36:29;;;;;;;;;;;;;;;;;;5092154;28;2024;-51
2023/05/21 10:38:59;;;;;;;;;;;;;;;;;;5091927;28;2267;-56
2023/05/21 10:41:27;;;;;;;;;;;;;;;;;;5092178;28;1928;-57
2023/05/21 10:43:57;;;;;;;;;;;;;;;;;;5091942;28;1704;-58
2023/05/21 10:46:36;;;;;;;;;;;;;;;;;;5090600;28;1944;-53
2023/05/21 10:49:06;;;;;;;;;;;;;;;;;;5093847;28;2010;-50
2023/05/21 10:52:00;;;;;;;;;;;;;;;;;;5112236;28;2338;-54
2023/05/21 10:54:46;;;;;;;;;;;;;;;;;;5121209;27;1962;-57
2023/05/21 10:57:21;;;;;;;;;;;;;;;;;;5132415;27;1839;-57
2023/05/21 10:59:51;;;;;;;;;;;;;;;;;;5132898;27;2047;-59
2023/05/21 11:02:18;;;;;;;;;;;;;;;;;;5132794;27;2115;-54
2023/05/21 11:04:56;;;;;;;;;;;;;;;;;;5132526;27;1483;-56
2023/05/21 11:07:43;;;;;;;;;;;;;;;;;;5132177;27;1951;-53
2023/05/21 11:10:30;;;;;;;;;;;;;;;;;;5132422;27;1806;-57
2023/05/21 11:13:06;;;;;;;;;;;;;;;;;;5132314;27;1948;-55
2023/05/21 11:15:56;;;;;;;;;;;;;;;;;;5132402;27;1713;-52
2023/05/21 11:18:30;;;;;;;;;;;;;;;;;;5119787;27;1706;-48
2023/05/21 11:21:27;;;;;;;;;;;;;;;;;;5132096;27;1914;-49
2023/05/21 11:23:55;;;;;;;;;;;;;;;;;;5130562;27;1755;-51
2023/05/21 11:26:26;;;;;;;;;;;;;;;;;;5132211;27;2295;-55
2023/05/21 11:29:05;;;;;;;;;;;;;;;;;;5132623;27;1993;-53
2023/05/21 11:31:36;;;;;;;;;;;;;;;;;;5131753;27;1368;-54
2023/05/21 11:34:11;;;;;;;;;;;;;;;;;;5131977;27;1995;-53
2023/05/21 11:36:43;;;;;;;;;;;;;;;;;;5131823;27;1681;-54
2023/05/21 11:39:14;;;;;;;;;;;;;;;;;;5131902;28;1906;-54
2023/05/21 11:41:57;;;;;;;;;;;;;;;;;;5132325;28;1138;-54
2023/05/21 11:44:40;;;;;;;;;;;;;;;;;;5132439;27;1448;-54
2023/05/21 11:47:08;;;;;;;;;;;;;;;;;;5136223;27;1550;-58
2023/05/21 11:49:36;;;;;;;;;;;;;;;;;;5135909;27;1626;-52
2023/05/21 11:52:04;;;;;;;;;;;;;;;;;;5136264;27;1851;-51
2023/05/21 11:54:36;;;;;;;;;;;;;;;;;;5136171;27;2234;-55
2023/05/21 11:57:06;;;;;;;;;;;;;;;;;;5136281;27;1855;-48
2023/05/21 11:59:34;;;;;;;;;;;;;;;;;;5136110;27;1971;-52
2023/05/21 12:02:02;;;;;;;;;;;;;;;;;;5135778;27;1848;-56
2023/05/21 12:04:36;;;;;;;;;;;;;;;;;;5117653;27;2435;-56
2023/05/21 12:07:06;;;;;;;;;;;;;;;;;;5135931;27;2167;-53
2023/05/21 12:09:41;;;;;;;;;;;;;;;;;;5135827;27;1253;-53
2023/05/21 12:12:13;;;;;;;;;;;;;;;;;;5135756;27;1922;-53
2023/05/21 12:14:45;;;;;;;;;;;;;;;;;;5136042;27;1418;-60
2023/05/21 12:17:17;;;;;;;;;;;;;;;;;;5135755;27;2166;-56
2023/05/21 12:19:45;;;;;;;;;;;;;;;;;;5135280;27;2138;-51
2023/05/21 12:22:14;;;;;;;;;;;;;;;;;;5135577;27;1509;-56
2023/05/21 12:24:45;;;;;;;;;;;;;;;;;;5135687;27;1533;-55
2023/05/21 12:27:12;;;;;;;;;;;;;;;;;;5135588;27;2172;-48
2023/05/21 12:29:41;;;;;;;;;;;;;;;;;;5135770;27;1881;-51
2023/05/21 12:32:09;;;;;;;;;;;;;;;;;;5135645;27;1861;-50
2023/05/21 12:34:38;;;;;;;;;;;;;;;;;;5135429;27;1877;-54
2023/05/21 12:37:08;;;;;;;;;;;;;;;;;;5135328;27;1957;-52
2023/05/21 12:39:42;;;;;;;;;;;;;;;;;;5135249;27;1910;-56
2023/05/21 12:42:10;;;;;;;;;;;;;;;;;;5135107;27;1857;-55
2023/05/21 12:44:45;;;;;;;;;;;;;;;;;;5135188;27;2288;-59
2023/05/21 12:47:13;;;;;;;;;;;;;;;;;;5135103;27;1779;-47
2023/05/21 12:49:46;;;;;;;;;;;;;;;;;;5134935;27;1760;-55
2023/05/21 12:52:16;;;;;;;;;;;;;;;;;;5135193;27;2114;-55
2023/05/21 12:54:44;;;;;;;;;;;;;;;;;;5135007;27;1807;-60
2023/05/21 12:57:14;;;;;;;;;;;;;;;;;;5129452;27;1829;-50
2023/05/21 12:59:52;;;;;;;;;;;;;;;;;;5114401;28;1992;-55
2023/05/21 13:02:21;;;;;;;;;;;;;;;;;;5114277;28;1839;-56
2023/05/21 13:04:54;;;;;;;;;;;;;;;;;;5114442;28;1444;-57
2023/05/21 13:07:22;;;;;;;;;;;;;;;;;;5114416;28;2313;-60
2023/05/21 13:09:52;;;;;;;;;;;;;;;;;;5114318;28;1435;-54
2023/05/21 13:12:20;;;;;;;;;;;;;;;;;;5114343;28;1284;-54
2023/05/21 13:14:51;;;;;;;;;;;;;;;;;;5114404;28;1492;-54
2023/05/21 13:17:18;;;;;;;;;;;;;;;;;;5114233;28;1687;-59
2023/05/21 13:20:07;;;;;;;;;;;;;;;;;;5113911;28;2129;-57
2023/05/21 13:22:37;;;;;;;;;;;;;;;;;;5114058;28;1390;-59
2023/05/21 13:25:05;;;;;;;;;;;;;;;;;;5113829;28;1664;-59
2023/05/21 13:27:32;;;;;;;;;;;;;;;;;;5113774;28;1859;-64
2023/05/21 13:30:00;;;;;;;;;;;;;;;;;;5114043;28;1794;-62
2023/05/21 13:32:27;;;;;;;;;;;;;;;;;;5113854;28;1579;-62
2023/05/21 13:34:54;;;;;;;;;;;;;;;;;;5113743;28;1728;-54
2023/05/21 13:37:22;;;;;;;;;;;;;;;;;;5113551;28;1842;-63
2023/05/21 13:39:49;;;;;;;;;;;;;;;;;;5113582;28;1983;-52
2023/05/21 13:42:16;;;;;;;;;;;;;;;;;;5113779;28;1892;-57
2023/05/21 13:44:43;;;;;;;;;;;;;;;;;;5113997;28;1273;-50
2023/05/21 13:47:11;;;;;;;;;;;;;;;;;;5113622;28;1814;-57
2023/05/21 13:49:39;;;;;;;;;;;;;;;;;;5113224;28;1627;-58
2023/05/21 13:52:07;;;;;;;;;;;;;;;;;;5113025;28;1931;-57
2023/05/21 13:54:35;;;;;;;;;;;;;;;;;;5126820;27;2114;-52
2023/05/21 13:57:03;;;;;;;;;;;;;;;;;;5130327;27;2021;-48
2023/05/21 13:59:32;;;;;;;;;;;;;;;;;;5113600;28;1958;-58
2023/05/21 14:02:00;;;;;;;;;;;;;;;;;;5113333;28;1966;-60
2023/05/21 14:04:28;;;;;;;;;;;;;;;;;;5113225;28;1869;-52
2023/05/21 14:06:55;;;;;;;;;;;;;;;;;;5112489;28;1996;-60
2023/05/21 14:09:25;;;;;;;;;;;;;;;;;;5112785;28;2297;-54
2023/05/21 14:11:53;;;;;;;;;;;;;;;;;;5113196;28;1580;-56
2023/05/21 14:14:21;;;;;;;;;;;;;;;;;;5112932;28;1883;-53
2023/05/21 14:16:49;;;;;;;;;;;;;;;;;;5112903;28;2102;-51
2023/05/21 14:19:17;;;;;;;;;;;;;;;;;;5094938;28;2138;-56
2023/05/21 14:21:44;;;;;;;;;;;;;;;;;;5112067;28;1967;-52
2023/05/21 14:24:11;;;;;;;;;;;;;;;;;;5112701;28;2120;-60
2023/05/21 14:26:39;;;;;;;;;;;;;;;;;;5094637;28;2502;-52
2023/05/21 14:29:07;;;;;;;;;;;;;;;;;;5112827;28;1468;-62
2023/05/21 14:31:34;;;;;;;;;;;;;;;;;;5112603;28;2066;-52
2023/05/21 14:34:02;;;;;;;;;;;;;;;;;;5112820;28;1393;-54
2023/05/21 14:36:29;;;;;;;;;;;;;;;;;;5112434;28;1809;-58
2023/05/21 14:38:58;;;;;;;;;;;;;;;;;;5132255;27;2049;-57
2023/05/21 14:41:26;;;;;;;;;;;;;;;;;;5132742;27;1908;-55
2023/05/21 14:43:53;;;;;;;;;;;;;;;;;;5132989;27;1638;-59
2023/05/21 14:46:20;;;;;;;;;;;;;;;;;;5133017;27;1964;-58
2023/05/21 14:48:48;;;;;;;;;;;;;;;;;;5132949;27;2047;-57
2023/05/21 14:51:16;;;;;;;;;;;;;;;;;;5132802;27;1879;-54
2023/05/21 14:53:43;;;;;;;;;;;;;;;;;;5132900;27;2200;-53
2023/05/21 14:56:10;;;;;;;;;;;;;;;;;;5132773;27;1813;-55
2023/05/21 14:58:37;;;;;;;;;;;;;;;;;;5132436;27;1989;-52
2023/05/21 15:01:07;;;;;;;;;;;;;;;;;;5129156;27;1918;-58
2023/05/21 15:03:34;;;;;;;;;;;;;;;;;;5131205;27;2180;-55
2023/05/21 15:06:02;;;;;;;;;;;;;;;;;;5130962;27;1644;-58
2023/05/21 15:08:29;;;;;;;;;;;;;;;;;;5130316;27;2106;-56
2023/05/21 15:10:56;;;;;;;;;;;;;;;;;;5130386;27;1640;-58
2023/05/21 15:13:24;;;;;;;;;;;;;;;;;;5130513;27;1449;-57
2023/05/21 15:15:51;;;;;;;;;;;;;;;;;;5130555;27;2102;-57
2023/05/21 15:18:18;;;;;;;;;;;;;;;;;;5131156;27;1830;-51
2023/05/21 15:20:45;;;;;;;;;;;;;;;;;;5132160;27;1914;-53
2023/05/21 15:23:13;;;;;;;;;;;;;;;;;;5131717;27;1241;-55
2023/05/21 15:25:43;;;;;;;;;;;;;;;;;;5132101;27;1964;-59
2023/05/21 15:28:10;;;;;;;;;;;;;;;;;;5132446;27;2062;-54
2023/05/21 15:30:38;;;;;;;;;;;;;;;;;;5132606;27;1954;-53
2023/05/21 15:33:05;;;;;;;;;;;;;;;;;;5132086;27;1618;-56
2023/05/21 15:35:36;;;;;;;;;;;;;;;;;;5132316;27;2186;-57
2023/05/21 15:38:04;;;;;;;;;;;;;;;;;;5132314;27;1894;-57
2023/05/21 15:40:31;;;;;;;;;;;;;;;;;;5131993;27;1973;-55
2023/05/21 15:42:58;;;;;;;;;;;;;;;;;;5132082;28;2069;-53
2023/05/21 15:45:25;;;;;;;;;;;;;;;;;;5132015;28;1584;-52
2023/05/21 15:47:53;;;;;;;;;;;;;;;;;;5132177;28;1737;-55
2023/05/21 15:50:20;;;;;;;;;;;;;;;;;;5131640;28;1712;-58
2023/05/21 15:52:48;;;;;;;;;;;;;;;;;;5131739;28;1378;-53
2023/05/21 15:55:17;;;;;;;;;;;;;;;;;;5132085;28;1527;-56
2023/05/21 15:57:44;;;;;;;;;;;;;;;;;;5103825;28;2038;-57
2023/05/21 16:00:11;;;;;;;;;;;;;;;;;;5092671;28;1921;-57
2023/05/21 16:02:40;;;;;;;;;;;;;;;;;;5111570;28;1741;-55
2023/05/21 16:05:08;;;;;;;;;;;;;;;;;;5111593;28;1637;-56
2023/05/21 16:07:35;;;;;;;;;;;;;;;;;;5111403;28;1823;-56
2023/05/21 16:10:04;;;;;;;;;;;;;;;;;;5111345;28;2159;-53
2023/05/21 16:12:31;;;;;;;;;;;;;;;;;;5111422;28;1919;-59
2023/05/21 16:14:59;;;;;;;;;;;;;;;;;;5111379;28;1552;-58
2023/05/21 16:17:29;;;;;;;;;;;;;;;;;;5111293;28;1778;-52
2023/05/21 16:19:56;;;;;;;;;;;;;;;;;;5111280;28;2013;-57
2023/05/21 16:22:23;;;;;;;;;;;;;;;;;;5111644;28;1917;-54
2023/05/21 16:24:52;;;;;;;;;;;;;;;;;;5110907;28;1679;-57
2023/05/21 16:27:20;;;;;;;;;;;;;;;;;;5110780;28;1429;-49
2023/05/21 16:29:47;;;;;;;;;;;;;;;;;;5128284;27;1632;-56
2023/05/21 16:32:15;;;;;;;;;;;;;;;;;;5134701;27;2013;-58
2023/05/21 16:34:42;;;;;;;;;;;;;;;;;;5135680;27;2037;-51
2023/05/21 16:37:10;;;;;;;;;;;;;;;;;;5135887;27;1898;-56
2023/05/21 16:39:37;;;;;;;;;;;;;;;;;;5135296;27;1972;-51
2023/05/21 16:42:04;;;;;;;;;;;;;;;;;;5135307;27;1983;-53
2023/05/21 16:44:31;;;;;;;;;;;;;;;;;;5135336;27;1369;-55
2023/05/21 16:47:00;;;;;;;;;;;;;;;;;;5134925;27;1594;-54
2023/05/21 16:49:27;;;;;;;;;;;;;;;;;;5135020;27;1782;-58
2023/05/21 16:51:54;;;;;;;;;;;;;;;;;;5135033;27;1861;-55
2023/05/21 16:54:24;;;;;;;;;;;;;;;;;;5135186;27;1600;-55
2023/05/21 16:56:53;;;;;;;;;;;;;;;;;;5135134;27;1592;-60
2023/05/21 16:59:21;;;;;;;;;;;;;;;;;;5134967;27;1470;-53
2023/05/21 17:01:48;;;;;;;;;;;;;;;;;;5134963;27;1909;-53
2023/05/21 17:04:15;;;;;;;;;;;;;;;;;;5134972;27;1702;-55
2023/05/21 17:06:42;;;;;;;;;;;;;;;;;;5134948;27;1334;-50
2023/05/21 17:09:10;;;;;;;;;;;;;;;;;;5135123;27;1861;-48
2023/05/21 17:11:37;;;;;;;;;;;;;;;;;;5134690;27;2072;-56
2023/05/21 17:14:04;;;;;;;;;;;;;;;;;;5134620;27;2092;-57
2023/05/21 17:16:31;;;;;;;;;;;;;;;;;;5134408;27;2116;-59
2023/05/21 17:18:59;;;;;;;;;;;;;;;;;;5134589;27;1817;-63